Time;durP1;ratioP1;P1;durP2;ratioP2;P2;SDS_P1;SDS_P2;PMS_P1;PMS_P2;Temp;Humidity;BMP_temperature;BMP_pressure;BME280_temperature;BME280_humidity;BME280_pressure;Samples;Min_cycle;Max_cycle;Signal;HPM_P1;HPM_P2
2021/01/18 00:00:15;;;;;;;38.90;28.15;;;;;;;-1.25;100.00;96347.47;1024577;29;20271;-73
2021/01/18 00:00:45;;;;;;;40.03;28.20;;;;;;;-1.28;100.00;96337.47;1025561;28;20077;-75
2021/01/18 00:01:17;;;;;;;45.22;30.50;;;;;;;-1.27;100.00;96339.06;1024875;28;20763;-73
2021/01/18 00:01:47;;;;;;;41.55;30.83;;;;;;;-1.29;100.00;96341.06;1029155;28;20035;-72
2021/01/18 00:02:18;;;;;;;44.95;29.75;;;;;;;-1.29;100.00;96335.84;1032572;28;20348;-72
2021/01/18 00:02:48;;;;;;;41.80;29.10;;;;;;;-1.28;100.00;96342.66;1032698;28;20491;-74
2021/01/18 00:03:19;;;;;;;41.38;30.00;;;;;;;-1.23;100.00;96353.28;1032704;28;20022;-72
2021/01/18 00:03:49;;;;;;;39.22;28.35;;;;;;;-1.24;100.00;96349.09;1032542;28;20049;-74
2021/01/18 00:04:21;;;;;;;42.92;30.13;;;;;;;-1.20;100.00;96350.31;1028294;28;20034;-75
2021/01/18 00:04:51;;;;;;;37.58;27.02;;;;;;;-1.22;100.00;96341.91;1028903;28;20027;-76
2021/01/18 00:05:22;;;;;;;38.22;28.10;;;;;;;-1.20;100.00;96345.91;1032475;28;20735;-78
2021/01/18 00:05:54;;;;;;;38.80;29.30;;;;;;;-1.19;100.00;96346.72;1032825;28;20027;-72
2021/01/18 00:06:24;;;;;;;45.65;31.10;;;;;;;-1.29;100.00;96343.66;1032535;28;20482;-73
2021/01/18 00:06:55;;;;;;;37.65;27.40;;;;;;;-1.25;100.00;96343.09;1028530;28;20523;-72
2021/01/18 00:07:25;;;;;;;40.35;29.52;;;;;;;-1.22;100.00;96344.50;1024598;28;20122;-72
2021/01/18 00:07:56;;;;;;;38.58;28.17;;;;;;;-1.18;100.00;96342.34;1024720;28;20062;-73
2021/01/18 00:08:26;;;;;;;38.17;27.60;;;;;;;-1.16;100.00;96343.75;1020490;29;20465;-73
2021/01/18 00:08:57;;;;;;;38.95;27.25;;;;;;;-1.15;100.00;96341.94;1024753;28;20093;-72
2021/01/18 00:09:27;;;;;;;39.72;28.27;;;;;;;-1.12;100.00;96349.38;1024558;29;20019;-73
2021/01/18 00:09:59;;;;;;;37.50;28.35;;;;;;;-1.21;100.00;96328.75;1020637;28;20028;-73
2021/01/18 00:10:29;;;;;;;36.47;28.52;;;;;;;-1.11;100.00;96343.97;1020191;29;20082;-76
2021/01/18 00:11:00;;;;;;;34.90;26.33;;;;;;;-1.09;100.00;96346.38;1020736;29;20617;-74
2021/01/18 00:11:31;;;;;;;40.58;29.55;;;;;;;-1.10;100.00;96342.19;1024488;29;20015;-74
2021/01/18 00:12:01;;;;;;;41.45;29.38;;;;;;;-1.11;100.00;96349.19;1024863;28;20019;-73
2021/01/18 00:12:33;;;;;;;42.67;30.35;;;;;;;-1.14;100.00;96339.16;1024590;28;20030;-72
2021/01/18 00:13:05;;;;;;;41.83;30.92;;;;;;;-1.05;100.00;96350.19;1028543;28;20019;-73
2021/01/18 00:13:36;;;;;;;38.40;27.48;;;;;;;-1.05;100.00;96343.22;1023555;29;20350;-73
2021/01/18 00:14:06;;;;;;;35.03;26.98;;;;;;;-1.04;100.00;96344.81;1017194;29;20268;-76
2021/01/18 00:14:38;;;;;;;39.78;28.33;;;;;;;-1.02;100.00;96342.81;1020572;29;20082;-72
2021/01/18 00:15:09;;;;;;;36.40;26.83;;;;;;;-0.99;100.00;96344.25;1016800;29;20039;-73
2021/01/18 00:15:40;;;;;;;40.17;28.70;;;;;;;-1.04;100.00;96344.00;1025194;28;20259;-74
2021/01/18 00:16:13;;;;;;;38.55;27.83;;;;;;;-1.02;100.00;96345.41;1036708;28;20026;-73
2021/01/18 00:16:47;;;;;;;38.22;27.77;;;;;;;-1.03;100.00;96345.59;1032501;28;20553;-73
2021/01/18 00:17:17;;;;;;;34.20;26.70;;;;;;;-1.04;100.00;96342.22;1034373;28;20329;-73
2021/01/18 00:17:48;;;;;;;36.70;28.88;;;;;;;-1.05;100.00;96345.81;1028583;28;20027;-76
2021/01/18 00:18:21;;;;;;;35.25;26.52;;;;;;;-0.99;100.00;96346.84;1024556;29;20012;-73
2021/01/18 00:18:51;;;;;;;37.20;27.40;;;;;;;-0.98;100.00;96345.06;1019710;29;20036;-72
2021/01/18 00:19:22;;;;;;;33.25;25.55;;;;;;;-0.99;100.00;96341.66;1016713;29;20324;-74
2021/01/18 00:19:52;;;;;;;36.53;27.67;;;;;;;-1.01;100.00;96347.03;1016850;29;20020;-73
2021/01/18 00:20:23;;;;;;;33.70;25.67;;;;;;;-0.97;100.00;96346.63;1020489;29;20095;-74
2021/01/18 00:20:54;;;;;;;35.15;26.27;;;;;;;-0.96;100.00;96345.66;1020612;29;20035;-74
2021/01/18 00:21:24;;;;;;;34.83;27.38;;;;;;;-0.95;100.00;96339.44;1024048;28;20436;-74
2021/01/18 00:21:55;;;;;;;36.90;27.75;;;;;;;-1.01;100.00;96341.84;1032356;28;20305;-73
2021/01/18 00:22:26;;;;;;;35.30;26.17;;;;;;;-0.97;100.00;96349.22;1032185;28;20053;-73
2021/01/18 00:22:56;;;;;;;34.70;27.08;;;;;;;-0.96;100.00;96345.66;1028459;28;20036;-74
2021/01/18 00:23:27;;;;;;;33.75;25.35;;;;;;;-0.92;100.00;96345.06;1028524;28;20015;-73
2021/01/18 00:23:57;;;;;;;35.80;28.58;;;;;;;-0.94;100.00;96347.06;1028450;28;20026;-77
2021/01/18 00:24:28;;;;;;;33.58;25.48;;;;;;;-0.91;100.00;96343.28;1028696;28;20007;-72
2021/01/18 00:25:01;;;;;;;33.88;26.50;;;;;;;-0.93;100.00;96351.28;1036678;28;20018;-74
2021/01/18 00:25:31;;;;;;;31.20;24.73;;;;;;;-0.91;100.00;96338.91;1036562;28;20049;-73
2021/01/18 00:26:03;;;;;;;31.23;24.38;;;;;;;-0.95;100.00;96336.84;1036861;28;20269;-75
2021/01/18 00:26:35;;;;;;;31.92;25.13;;;;;;;-0.90;100.00;96350.09;1028432;28;20623;-74
2021/01/18 00:27:06;;;;;;;31.77;25.27;;;;;;;-0.93;100.00;96346.09;1024223;29;20271;-73
2021/01/18 00:27:37;;;;;;;29.95;24.67;;;;;;;-0.93;100.00;96340.88;1024522;29;20251;-78
2021/01/18 00:28:08;;;;;;;29.85;23.73;;;;;;;-0.85;100.00;96355.53;1021465;28;20023;-74
2021/01/18 00:28:40;;;;;;;29.23;24.30;;;;;;;-0.86;100.00;96349.50;1028253;28;20254;-73
2021/01/18 00:29:11;;;;;;;32.65;24.67;;;;;;;-0.85;100.00;96343.31;1023615;29;20035;-74
2021/01/18 00:29:41;;;;;;;31.38;24.17;;;;;;;-0.82;100.00;96348.13;1020919;29;20751;-74
2021/01/18 00:30:17;;;;;;;30.88;23.52;;;;;;;-0.87;100.00;96340.13;1020849;29;20020;-73
2021/01/18 00:30:48;;;;;;;30.00;23.20;;;;;;;-0.86;100.00;96351.31;1020283;29;20023;-76
2021/01/18 00:31:18;;;;;;;32.42;23.92;;;;;;;-0.84;100.00;96349.31;1021306;29;20355;-73
2021/01/18 00:31:49;;;;;;;27.98;23.17;;;;;;;-0.85;100.00;96351.13;1025157;28;20015;-72
2021/01/18 00:32:22;;;;;;;29.60;23.58;;;;;;;-0.83;100.00;96350.94;1028908;28;20376;-73
2021/01/18 00:32:53;;;;;;;28.63;22.77;;;;;;;-0.85;100.00;96353.72;1032294;28;20094;-74
2021/01/18 00:33:23;;;;;;;28.10;23.60;;;;;;;-0.84;100.00;96351.91;1032537;28;20330;-75
2021/01/18 00:33:54;;;;;;;29.55;22.98;;;;;;;-0.85;100.00;96345.13;1032280;28;20026;-73
2021/01/18 00:34:26;;;;;;;27.95;23.73;;;;;;;-0.86;100.00;96346.09;1032530;28;20030;-73
2021/01/18 00:34:56;;;;;;;29.20;23.73;;;;;;;-0.93;100.00;96340.06;1036965;28;20026;-72
2021/01/18 00:35:28;;;;;;;28.35;22.80;;;;;;;-0.88;100.00;96348.09;1036771;28;20721;-73
2021/01/18 00:35:59;;;;;;;25.05;21.90;;;;;;;-0.87;100.00;96342.72;1036940;28;20261;-75
2021/01/18 00:36:30;;;;;;;29.33;23.02;;;;;;;-0.85;100.00;96343.31;1032495;28;20703;-73
2021/01/18 00:37:00;;;;;;;28.25;23.02;;;;;;;-0.82;100.00;96355.13;1032535;28;20061;-74
2021/01/18 00:37:32;;;;;;;28.38;22.45;;;;;;;-0.84;100.00;96344.13;1032499;28;20061;-73
2021/01/18 00:38:03;;;;;;;28.77;23.42;;;;;;;-0.86;100.00;96346.91;1028882;28;20026;-73
2021/01/18 00:38:34;;;;;;;24.50;20.65;;;;;;;-0.84;100.00;96346.72;1031600;28;20273;-74
2021/01/18 00:39:05;;;;;;;28.33;22.02;;;;;;;-0.84;100.00;96338.91;1032410;28;20110;-73
2021/01/18 00:39:36;;;;;;;26.83;21.00;;;;;;;-0.87;100.00;96347.13;1032911;28;20117;-74
2021/01/18 00:40:08;;;;;;;29.70;23.30;;;;;;;-0.84;100.00;96342.31;1032191;28;20286;-73
2021/01/18 00:40:38;;;;;;;25.38;21.70;;;;;;;-0.80;100.00;96346.13;1024117;29;20327;-77
2021/01/18 00:41:09;;;;;;;25.75;21.90;;;;;;;-0.80;100.00;96350.53;1024424;29;20426;-77
2021/01/18 00:41:40;;;;;;;28.67;23.15;;;;;;;-0.80;100.00;96340.13;1024822;28;20066;-72
2021/01/18 00:42:18;;;;;;;25.55;21.60;;;;;;;-0.80;100.00;96340.94;1025092;28;20034;-73
2021/01/18 00:42:48;;;;;;;26.58;22.65;;;;;;;-0.80;100.00;96348.72;1024319;29;20269;-76
2021/01/18 00:43:19;;;;;;;25.35;21.33;;;;;;;-0.77;100.00;96344.97;1020411;29;20259;-77
2021/01/18 00:43:49;;;;;;;21.83;19.20;;;;;;;-0.76;100.00;96346.56;1021496;29;20020;-73
2021/01/18 00:44:20;;;;;;;22.65;20.20;;;;;;;-0.75;100.00;96347.34;1024501;28;20015;-74
2021/01/18 00:44:50;;;;;;;24.02;20.95;;;;;;;-0.77;100.00;96342.38;1028681;28;20058;-74
2021/01/18 00:45:21;;;;;;;23.33;20.77;;;;;;;-0.76;100.00;96341.34;1036737;28;20022;-75
2021/01/18 00:45:52;;;;;;;22.35;18.88;;;;;;;-0.73;100.00;96337.56;1032277;28;20058;-72
2021/01/18 00:46:23;;;;;;;23.67;20.33;;;;;;;-0.73;100.00;96342.75;1027808;28;20274;-73
2021/01/18 00:46:53;;;;;;;22.50;19.13;;;;;;;-0.74;100.00;96338.56;1028407;28;20065;-73
2021/01/18 00:47:23;;;;;;;21.15;18.95;;;;;;;-0.71;100.00;96344.19;1024469;28;20015;-76
2021/01/18 00:47:55;;;;;;;22.70;19.00;;;;;;;-0.72;100.00;96341.78;1028305;28;20038;-73
2021/01/18 00:48:27;;;;;;;21.52;19.17;;;;;;;-0.69;100.00;96341.41;1020262;29;20020;-74
2021/01/18 00:49:00;;;;;;;23.02;18.55;;;;;;;-0.69;100.00;96349.19;1016540;29;20347;-77
2021/01/18 00:49:30;;;;;;;22.77;19.42;;;;;;;-0.71;100.00;96341.59;1020353;29;20628;-74
2021/01/18 00:50:01;;;;;;;20.77;18.55;;;;;;;-0.73;100.00;96343.59;1016328;29;20313;-73
2021/01/18 00:50:34;;;;;;;23.67;20.48;;;;;;;-0.71;100.00;96346.78;1012238;29;20044;-74
2021/01/18 00:51:04;;;;;;;22.08;19.38;;;;;;;-0.70;100.00;96353.56;1016424;29;20276;-75
2021/01/18 00:51:38;;;;;;;21.83;18.85;;;;;;;-0.72;100.00;96346.97;1016336;29;20281;-72
2021/01/18 00:52:27;;;;;;;21.55;19.10;;;;;;;-0.73;100.00;96348.78;1012581;29;20273;-71
2021/01/18 00:53:00;;;;;;;22.40;19.70;;;;;;;-0.69;100.00;96344.00;1020482;29;20299;-73
2021/01/18 00:53:31;;;;;;;22.70;18.88;;;;;;;-0.68;100.00;96348.19;1016428;29;20284;-72
2021/01/18 00:54:01;;;;;;;23.88;19.33;;;;;;;-0.71;100.00;96343.41;1016553;29;20268;-72
2021/01/18 00:54:34;;;;;;;23.70;19.90;;;;;;;-0.74;100.00;96341.97;1016566;29;20038;-72
2021/01/18 00:55:05;;;;;;;23.10;18.85;;;;;;;-0.69;100.00;96344.00;1016705;29;20363;-74
2021/01/18 00:55:35;;;;;;;21.65;18.65;;;;;;;-0.70;100.00;96339.78;1024575;28;20023;-73
2021/01/18 00:56:06;;;;;;;22.20;18.98;;;;;;;-0.68;100.00;96348.97;1020881;28;20271;-74
2021/01/18 00:56:36;;;;;;;22.38;19.73;;;;;;;-0.68;100.00;96343.78;1024470;28;20419;-73
2021/01/18 00:57:07;;;;;;;22.98;19.23;;;;;;;-0.66;100.00;96341.78;1028352;28;20379;-72
2021/01/18 00:57:37;;;;;;;21.35;19.02;;;;;;;-0.70;100.00;96350.19;1028374;28;20087;-71
2021/01/18 00:58:11;;;;;;;21.00;18.65;;;;;;;-0.70;100.00;96345.78;1028516;28;20029;-74
2021/01/18 00:58:44;;;;;;;20.13;17.67;;;;;;;-0.70;100.00;96343.19;1028370;28;20387;-75
2021/01/18 00:59:17;;;;;;;21.17;18.73;;;;;;;-0.73;100.00;96340.97;1024322;29;20282;-75
2021/01/18 00:59:49;;;;;;;21.33;18.70;;;;;;;-0.69;100.00;96347.41;1020397;29;20274;-74
2021/01/18 01:00:24;;;;;;;22.98;19.35;;;;;;;-0.71;100.00;96357.19;1016445;29;20269;-74
2021/01/18 01:00:55;;;;;;;21.27;18.98;;;;;;;-0.73;100.00;96340.16;1012636;29;20356;-72
2021/01/18 01:01:30;;;;;;;22.83;19.38;;;;;;;-0.70;100.00;96345.78;1012712;29;20638;-73
2021/01/18 01:02:01;;;;;;;20.42;17.55;;;;;;;-0.68;100.00;96353.38;1017618;29;20032;-73
2021/01/18 01:02:32;;;;;;;22.90;18.77;;;;;;;-0.68;100.00;96345.59;1021337;29;20263;-73
2021/01/18 01:03:02;;;;;;;21.52;18.95;;;;;;;-0.68;100.00;96351.59;1025103;28;20110;-71
2021/01/18 01:03:33;;;;;;;21.05;18.73;;;;;;;-0.67;100.00;96355.78;1024600;28;20033;-72
2021/01/18 01:04:03;;;;;;;22.88;19.60;;;;;;;-0.68;100.00;96348.97;1027947;28;20026;-72
2021/01/18 01:04:36;;;;;;;23.02;20.00;;;;;;;-0.68;100.00;96351.59;1028259;28;20029;-74
2021/01/18 01:05:09;;;;;;;21.45;18.73;;;;;;;-0.67;100.00;96348.00;1028909;28;20315;-73
2021/01/18 01:05:40;;;;;;;24.50;19.17;;;;;;;-0.68;100.00;96351.59;1032548;28;20269;-73
2021/01/18 01:06:10;;;;;;;20.98;18.50;;;;;;;-0.71;100.00;96346.78;1028239;28;20277;-71
2021/01/18 01:06:40;;;;;;;21.23;17.73;;;;;;;-0.65;100.00;96346.00;1028517;28;20019;-72
2021/01/18 01:07:11;;;;;;;20.10;17.55;;;;;;;-0.65;100.00;96356.41;1028349;28;20026;-73
2021/01/18 01:07:43;;;;;;;21.13;18.10;;;;;;;-0.69;100.00;96350.00;1024451;28;20480;-74
2021/01/18 01:08:13;;;;;;;22.13;17.30;;;;;;;-0.66;100.00;96351.41;1020480;29;20023;-74
2021/01/18 01:08:44;;;;;;;20.70;18.45;;;;;;;-0.66;100.00;96352.19;1020280;29;20323;-73
2021/01/18 01:09:14;;;;;;;21.38;18.98;;;;;;;-0.66;100.00;96352.19;1016679;29;20028;-72
2021/01/18 01:09:45;;;;;;;21.48;18.75;;;;;;;-0.68;100.00;96346.38;1020574;28;20497;-76
2021/01/18 01:10:20;;;;;;;19.48;17.42;;;;;;;-0.71;100.00;96333.78;1024383;29;20030;-73
2021/01/18 01:10:52;;;;;;;21.13;17.65;;;;;;;-0.60;100.00;96350.63;1024285;29;20396;-73
2021/01/18 01:11:24;;;;;;;19.42;17.25;;;;;;;-0.61;100.00;96355.03;1024948;28;20342;-73
2021/01/18 01:11:54;;;;;;;19.30;16.90;;;;;;;-0.65;100.00;96342.63;1029420;28;20719;-73
2021/01/18 01:12:25;;;;;;;19.13;17.13;;;;;;;-0.59;100.00;96357.44;1024278;29;20266;-74
2021/01/18 01:12:56;;;;;;;20.63;18.33;;;;;;;-0.55;100.00;96357.84;1024338;29;20023;-75
2021/01/18 01:13:28;;;;;;;19.60;17.23;;;;;;;-0.61;100.00;96354.22;1024288;29;20492;-72
2021/01/18 01:13:58;;;;;;;19.17;16.83;;;;;;;-0.62;100.00;96348.22;1020951;28;20335;-73
2021/01/18 01:14:31;;;;;;;20.75;18.55;;;;;;;-0.65;100.00;96356.41;1020329;29;20338;-72
2021/01/18 01:15:04;;;;;;;19.88;17.77;;;;;;;-0.60;100.00;96355.81;1020369;29;20267;-73
2021/01/18 01:15:37;;;;;;;19.63;17.38;;;;;;;-0.64;100.00;96355.41;1017270;29;20268;-75
2021/01/18 01:16:09;;;;;;;19.55;16.98;;;;;;;-0.62;100.00;96352.59;1019003;29;20783;-72
2021/01/18 01:16:42;;;;;;;20.58;17.40;;;;;;;-0.67;100.00;96355.00;1008433;29;20265;-72
2021/01/18 01:17:13;;;;;;;20.15;17.48;;;;;;;-0.66;100.00;96354.78;1008687;29;20382;-73
2021/01/18 01:17:46;;;;;;;20.23;17.35;;;;;;;-0.66;100.00;96357.38;1012308;29;20280;-72
2021/01/18 01:18:16;;;;;;;18.77;16.75;;;;;;;-0.66;100.00;96357.38;1013275;29;20020;-75
2021/01/18 01:18:47;;;;;;;18.67;16.63;;;;;;;-0.66;100.00;96354.78;1017520;28;20268;-73
2021/01/18 01:19:18;;;;;;;17.63;15.73;;;;;;;-0.64;100.00;96352.00;1020536;29;20028;-72
2021/01/18 01:19:49;;;;;;;18.80;16.80;;;;;;;-0.63;100.00;96351.81;1020581;29;20020;-73
2021/01/18 01:20:20;;;;;;;20.52;17.55;;;;;;;-0.63;100.00;96362.22;1019756;29;20271;-73
2021/01/18 01:20:51;;;;;;;19.35;16.42;;;;;;;-0.66;100.00;96362.59;1017544;29;20024;-80
2021/01/18 01:21:22;;;;;;;18.58;16.60;;;;;;;-0.67;100.00;96355.78;1024454;28;20271;-71
2021/01/18 01:21:53;;;;;;;19.20;16.98;;;;;;;-0.66;100.00;96354.78;1016447;29;20020;-73
2021/01/18 01:22:26;;;;;;;19.15;17.08;;;;;;;-0.64;100.00;96359.81;1020391;29;20027;-73
2021/01/18 01:22:56;;;;;;;20.13;16.73;;;;;;;-0.65;100.00;96356.41;1020345;29;20042;-72
2021/01/18 01:23:28;;;;;;;19.02;16.35;;;;;;;-0.62;100.00;96353.41;1020520;29;20279;-71
2021/01/18 01:23:59;;;;;;;20.05;17.02;;;;;;;-0.64;100.00;96354.59;1023834;29;20025;-72
2021/01/18 01:24:30;;;;;;;18.17;16.27;;;;;;;-0.62;100.00;96353.41;1016471;29;20257;-73
2021/01/18 01:25:02;;;;;;;19.02;16.70;;;;;;;-0.62;100.00;96361.19;1024074;29;20294;-78
2021/01/18 01:25:33;;;;;;;18.45;15.70;;;;;;;-0.70;100.00;96343.19;1020451;29;20295;-75
2021/01/18 01:26:05;;;;;;;18.13;16.23;;;;;;;-0.62;100.00;96350.81;1021330;28;20286;-74
2021/01/18 01:26:35;;;;;;;18.58;16.20;;;;;;;-0.63;100.00;96356.22;1024493;29;20106;-71
2021/01/18 01:27:06;;;;;;;18.08;16.17;;;;;;;-0.64;100.00;96355.41;1024325;29;20271;-72
2021/01/18 01:27:37;;;;;;;16.95;15.18;;;;;;;-0.62;100.00;96357.81;1025128;28;20023;-73
2021/01/18 01:28:09;;;;;;;19.35;16.35;;;;;;;-0.59;100.00;96362.63;1020414;29;20046;-71
2021/01/18 01:28:39;;;;;;;18.52;15.98;;;;;;;-0.62;100.00;96361.19;1016234;29;20442;-73
2021/01/18 01:29:10;;;;;;;18.80;16.15;;;;;;;-0.64;100.00;96354.59;1016278;29;20284;-74
2021/01/18 01:29:43;;;;;;;18.67;16.60;;;;;;;-0.58;100.00;96363.44;1020338;29;20148;-73
2021/01/18 01:30:18;;;;;;;18.17;15.38;;;;;;;-0.56;100.00;96359.63;1020226;29;20272;-73
2021/01/18 01:30:48;;;;;;;20.13;16.25;;;;;;;-0.59;100.00;96362.63;1017344;29;20686;-74
2021/01/18 01:31:20;;;;;;;18.63;16.38;;;;;;;-0.58;100.00;96368.63;1021254;29;20366;-73
2021/01/18 01:31:51;;;;;;;16.65;14.90;;;;;;;-0.63;100.00;96362.22;1025864;28;20043;-74
2021/01/18 01:32:21;;;;;;;15.45;13.82;;;;;;;-0.60;100.00;96367.00;1032549;28;20270;-72
2021/01/18 01:32:53;;;;;;;16.15;14.40;;;;;;;-0.61;100.00;96360.22;1036577;28;20022;-71
2021/01/18 01:33:23;;;;;;;15.98;14.20;;;;;;;-0.56;100.00;96370.03;1032496;28;20422;-77
2021/01/18 01:33:56;;;;;;;14.82;13.25;;;;;;;-0.55;100.00;96369.06;1031867;28;20258;-73
2021/01/18 01:34:27;;;;;;;16.05;13.98;;;;;;;-0.56;100.00;96370.03;1031156;28;20438;-73
2021/01/18 01:34:59;;;;;;;15.98;13.38;;;;;;;-0.54;100.00;96367.25;1032804;28;20270;-73
2021/01/18 01:35:31;;;;;;;17.80;14.40;;;;;;;-0.53;100.00;96371.47;1032198;28;20331;-73
2021/01/18 01:36:01;;;;;;;15.57;13.93;;;;;;;-0.54;100.00;96370.63;1028237;28;20488;-74
2021/01/18 01:36:32;;;;;;;15.73;14.07;;;;;;;-0.55;100.00;96368.25;1024150;29;20313;-72
2021/01/18 01:37:03;;;;;;;15.52;13.88;;;;;;;-0.54;100.00;96369.84;1024242;29;20302;-73
2021/01/18 01:37:35;;;;;;;15.95;13.93;;;;;;;-0.51;100.00;96374.66;1020130;29;20469;-74
2021/01/18 01:38:08;;;;;;;15.60;13.98;;;;;;;-0.55;100.00;96376.06;1020213;29;20045;-71
2021/01/18 01:38:39;;;;;;;16.77;14.52;;;;;;;-0.55;100.00;96368.25;1025816;28;20283;-73
2021/01/18 01:39:11;;;;;;;16.13;14.23;;;;;;;-0.54;100.00;96372.44;1033135;28;20265;-72
2021/01/18 01:39:41;;;;;;;14.88;13.35;;;;;;;-0.55;100.00;96379.44;1031886;28;20034;-72
2021/01/18 01:40:13;;;;;;;15.63;13.98;;;;;;;-0.54;100.00;96378.44;1032288;28;20277;-73
2021/01/18 01:40:44;;;;;;;14.90;13.32;;;;;;;-0.54;100.00;96378.44;1028221;28;20038;-73
2021/01/18 01:41:14;;;;;;;15.90;13.60;;;;;;;-0.52;100.00;96373.06;1028436;28;20635;-74
2021/01/18 01:41:47;;;;;;;14.80;13.15;;;;;;;-0.50;100.00;96377.06;1028291;28;20274;-72
2021/01/18 01:42:25;;;;;;;16.27;13.35;;;;;;;-0.49;100.00;96375.28;1024112;29;20029;-72
2021/01/18 01:42:56;;;;;;;15.77;13.55;;;;;;;-0.52;100.00;96379.03;1021531;29;20268;-74
2021/01/18 01:43:26;;;;;;;15.48;13.85;;;;;;;-0.50;100.00;96371.06;1021664;29;20275;-73
2021/01/18 01:43:57;;;;;;;15.43;13.73;;;;;;;-0.51;100.00;96377.25;1017220;29;20264;-72
2021/01/18 01:44:29;;;;;;;15.40;13.77;;;;;;;-0.58;100.00;96364.22;1016754;29;20056;-73
2021/01/18 01:44:59;;;;;;;16.48;14.77;;;;;;;-0.51;100.00;96377.25;1019750;29;20436;-73
2021/01/18 01:45:35;;;;;;;15.45;12.88;;;;;;;-0.53;100.00;96372.25;1020386;29;20264;-72
2021/01/18 01:46:05;;;;;;;16.10;14.05;;;;;;;-0.50;100.00;96373.66;1021198;29;20031;-74
2021/01/18 01:46:36;;;;;;;14.65;13.07;;;;;;;-0.54;100.00;96370.63;1021364;29;20264;-72
2021/01/18 01:47:08;;;;;;;15.75;14.05;;;;;;;-0.54;100.00;96375.03;1025031;28;20538;-75
2021/01/18 01:47:44;;;;;;;14.88;13.30;;;;;;;-0.64;100.00;96355.41;1023971;29;20460;-73
2021/01/18 01:48:15;;;;;;;14.55;12.70;;;;;;;-0.50;100.00;96371.84;1020263;29;20263;-75
2021/01/18 01:48:45;;;;;;;15.75;14.05;;;;;;;-0.52;100.00;96368.66;1021182;29;20352;-73
2021/01/18 01:49:16;;;;;;;15.70;13.68;;;;;;;-0.53;100.00;96372.25;1022298;28;20024;-75
2021/01/18 01:49:46;;;;;;;15.77;14.15;;;;;;;-0.56;100.00;96367.44;1024684;28;20384;-71
2021/01/18 01:50:17;;;;;;;15.50;13.80;;;;;;;-0.60;100.00;96364.41;1020391;29;20031;-81
2021/01/18 01:50:48;;;;;;;14.00;12.50;;;;;;;-0.54;100.00;96367.25;1020297;29;20116;-72
2021/01/18 01:51:23;;;;;;;14.50;13.00;;;;;;;-0.54;100.00;96372.44;1024025;29;20278;-77
2021/01/18 01:51:56;;;;;;;16.45;13.35;;;;;;;-0.54;100.00;96367.25;1020966;29;20086;-74
2021/01/18 01:52:27;;;;;;;14.80;13.30;;;;;;;-0.56;100.00;96364.81;1016283;29;20363;-77
2021/01/18 01:53:11;;;;;;;14.68;12.85;;;;;;;-0.49;100.00;96362.28;1014634;29;20276;-73
2021/01/18 01:53:42;;;;;;;14.25;12.50;;;;;;;-0.51;100.00;96370.25;1023070;29;20295;-73
2021/01/18 01:54:14;;;;;;;15.00;13.05;;;;;;;-0.52;100.00;96371.25;1025166;28;20263;-75
2021/01/18 01:54:55;;;;;;;16.75;12.65;;;;;;;-0.50;100.00;96371.84;1027100;28;20322;-73
2021/01/18 01:55:33;;;;;;;13.63;11.52;;;;;;;-0.51;100.00;96365.06;1024321;29;20668;-74
2021/01/18 01:56:04;;;;;;;12.30;10.95;;;;;;;-0.54;100.00;96360.25;1026861;28;20305;-72
2021/01/18 01:56:35;;;;;;;14.23;12.73;;;;;;;-0.52;100.00;96354.84;1021355;29;20358;-72
2021/01/18 01:57:06;;;;;;;13.63;12.02;;;;;;;-0.50;100.00;96365.84;1024309;29;20306;-75
2021/01/18 01:57:37;;;;;;;13.20;11.80;;;;;;;-0.51;100.00;96366.88;1016553;29;20269;-74
2021/01/18 01:58:09;;;;;;;13.73;12.23;;;;;;;-0.50;100.00;96365.84;1016349;29;20528;-79
2021/01/18 01:58:40;;;;;;;13.52;11.70;;;;;;;-0.49;100.00;96373.47;1012099;29;20017;-73
2021/01/18 01:59:13;;;;;;;13.55;11.50;;;;;;;-0.52;100.00;96362.66;1016513;29;20278;-71
2021/01/18 01:59:44;;;;;;;14.80;12.52;;;;;;;-0.60;100.00;96361.81;1014838;29;20425;-72
2021/01/18 02:00:16;;;;;;;12.55;10.85;;;;;;;-0.52;100.00;96373.84;1020146;29;20282;-76
2021/01/18 02:00:48;;;;;;;12.18;10.88;;;;;;;-0.49;100.00;96367.47;1016271;29;20446;-72
2021/01/18 02:01:19;;;;;;;13.70;10.88;;;;;;;-0.54;100.00;96362.03;1016616;29;20610;-73
2021/01/18 02:01:50;;;;;;;13.82;10.80;;;;;;;-0.55;100.00;96363.84;1017186;29;20315;-76
2021/01/18 02:02:21;;;;;;;12.95;11.07;;;;;;;-0.53;100.00;96361.06;1024612;28;20382;-72
2021/01/18 02:02:51;;;;;;;12.30;11.00;;;;;;;-0.48;100.00;96366.47;1024119;29;20329;-72
2021/01/18 02:03:47;;;;;;;13.57;11.43;;;;;;;-0.48;100.00;96366.47;1019507;29;20039;-73
2021/01/18 02:04:17;;;;;;;11.43;10.25;;;;;;;-0.48;100.00;96369.06;1020145;29;20038;-77
2021/01/18 02:04:49;;;;;;;12.93;11.05;;;;;;;-0.49;100.00;96368.28;1018725;29;20632;-74
2021/01/18 02:05:20;;;;;;;11.18;9.98;;;;;;;-0.49;100.00;96365.66;1023190;29;20115;-74
2021/01/18 02:05:53;;;;;;;12.30;10.63;;;;;;;-0.48;100.00;96366.47;1024113;29;20629;-72
2021/01/18 02:06:24;;;;;;;12.27;10.98;;;;;;;-0.46;100.00;96367.06;1017532;29;20051;-74
2021/01/18 02:06:54;;;;;;;12.95;11.07;;;;;;;-0.45;100.00;96369.47;1016767;29;20291;-84
2021/01/18 02:07:28;;;;;;;12.25;10.55;;;;;;;-0.44;100.00;96362.47;1020272;29;20028;-81
2021/01/18 02:08:03;;;;;;;12.00;10.57;;;;;;;-0.44;100.00;96365.91;1021288;28;20034;-82
2021/01/18 02:08:36;;;;;;;11.23;9.95;;;;;;;-0.46;100.00;96365.25;1025177;28;20278;-74
2021/01/18 02:09:08;;;;;;;11.82;9.88;;;;;;;-0.49;100.00;96367.47;1028070;28;20715;-73
2021/01/18 02:09:38;;;;;;;10.05;9.02;;;;;;;-0.45;100.00;96364.28;1023925;28;20274;-75
2021/01/18 02:10:09;;;;;;;12.35;11.05;;;;;;;-0.47;100.00;96368.88;1020768;29;20275;-77
2021/01/18 02:10:42;;;;;;;12.43;10.52;;;;;;;-0.43;100.00;96374.50;1020450;29;20369;-79
2021/01/18 02:11:12;;;;;;;11.65;10.18;;;;;;;-0.42;100.00;96370.88;1024338;28;20275;-71
2021/01/18 02:11:43;;;;;;;12.50;10.80;;;;;;;-0.42;100.00;96366.50;1024421;28;20361;-73
2021/01/18 02:12:17;;;;;;;10.20;9.20;;;;;;;-0.41;100.00;96375.09;1024556;28;20121;-73
2021/01/18 02:12:48;;;;;;;11.40;10.20;;;;;;;-0.41;100.00;96370.69;1023984;29;20023;-78
2021/01/18 02:13:19;;;;;;;10.55;9.45;;;;;;;-0.43;100.00;96374.50;1024776;28;20314;-71
2021/01/18 02:14:08;;;;;;;11.80;10.60;;;;;;;-0.42;100.00;96376.09;1020588;29;20024;-74
2021/01/18 02:14:59;;;;;;;10.77;8.68;;;;;;;-0.44;100.00;96365.91;1022288;29;20032;-74
2021/01/18 02:16:12;;;;;;;10.25;9.25;;;;;;;-0.43;100.00;96380.50;1025361;28;20043;-75
2021/01/18 02:16:50;;;;;;;10.80;9.30;;;;;;;-0.41;100.00;96364.69;1035700;28;20746;-78
2021/01/18 02:17:35;;;;;;;12.50;10.13;;;;;;;-0.50;100.00;96358.06;1027793;28;20266;-78
2021/01/18 02:18:15;;;;;;;12.57;9.10;;;;;;;-0.42;100.00;96373.47;1028093;28;20270;-78
2021/01/18 02:19:07;;;;;;;11.02;9.52;;;;;;;-0.42;100.00;96366.50;1027658;28;20612;-77
2021/01/18 02:20:09;;;;;;;12.05;10.00;;;;;;;-0.44;100.00;96376.31;1032023;28;20334;-72
2021/01/18 02:20:59;;;;;;;11.35;9.90;;;;;;;-0.43;100.00;96371.91;1023675;29;20300;-78
2021/01/18 02:21:51;;;;;;;11.60;9.55;;;;;;;-0.44;100.00;96371.09;1032191;28;20262;-76
2021/01/18 02:22:52;;;;;;;12.13;9.65;;;;;;;-0.43;100.00;96372.69;1032056;28;20582;-76
2021/01/18 02:24:00;;;;;;;10.85;9.43;;;;;;;-0.42;100.00;96376.09;1026801;28;20313;-72
2021/01/18 02:24:59;;;;;;;10.82;8.75;;;;;;;-0.45;100.00;96368.69;1028123;28;20316;-73
2021/01/18 02:25:34;;;;;;;11.40;9.45;;;;;;;-0.46;100.00;96380.06;1036316;28;20344;-72
2021/01/18 02:26:09;;;;;;;11.52;9.70;;;;;;;-0.44;100.00;96378.06;1028007;28;20274;-77
2021/01/18 02:26:49;;;;;;;12.27;10.77;;;;;;;-0.44;100.00;96376.31;1023880;29;20295;-72
2021/01/18 02:27:41;;;;;;;11.57;9.85;;;;;;;-0.41;100.00;96381.09;1023985;29;20252;-72
2021/01/18 02:28:24;;;;;;;11.15;9.68;;;;;;;-0.42;100.00;96378.69;1024653;28;20595;-75
2021/01/18 02:29:22;;;;;;;11.80;9.95;;;;;;;-0.45;100.00;96377.28;1023944;29;20273;-75
2021/01/18 02:30:11;;;;;;;14.95;10.63;;;;;;;-0.42;100.00;96379.50;1025233;28;20274;-72